createdAt,value
2022-11-20T00:01:34.283Z,99801.66
2022-11-20T00:04:02.941Z,99802.07
2022-11-20T00:06:31.473Z,99801.77
2022-11-20T00:09:01.511Z,99809.08
2022-11-20T00:11:31.376Z,99809.14
2022-11-20T00:14:01.556Z,99800.73
2022-11-20T00:16:32.900Z,99795.19
2022-11-20T00:19:01.193Z,99801.67
2022-11-20T00:21:31.051Z,99807.78
2022-11-20T00:23:59.404Z,99813.71
2022-11-20T00:26:29.235Z,99821.67
2022-11-20T00:28:59.925Z,99823.30
2022-11-20T00:31:28.662Z,99822.80
2022-11-20T00:33:57.724Z,99817.97
2022-11-20T00:36:28.169Z,99815.20
2022-11-20T00:38:58.455Z,99820.11
2022-11-20T00:41:29.792Z,99820.81
2022-11-20T00:43:58.612Z,99825.71
2022-11-20T00:46:28.839Z,99822.29
2022-11-20T00:48:57.244Z,99820.11
2022-11-20T00:51:27.927Z,99823.63
2022-11-20T00:53:57.981Z,99832.71
2022-11-20T00:56:26.028Z,99829.66
2022-11-20T00:58:53.950Z,99826.13
2022-11-20T01:01:25.379Z,99828.33
2022-11-20T01:03:55.653Z,99831.41
2022-11-20T01:06:29.904Z,99826.34
2022-11-20T01:09:00.999Z,99814.20
2022-11-20T01:11:31.694Z,99814.92
2022-11-20T01:14:00.382Z,99819.25
2022-11-20T01:16:30.071Z,99822.00
2022-11-20T01:19:00.780Z,99822.46
2022-11-20T01:21:32.024Z,99829.35
2022-11-20T01:24:03.103Z,99825.83
2022-11-20T01:26:36.719Z,99815.40
2022-11-20T01:29:05.606Z,99812.02
2022-11-20T01:31:35.787Z,99809.04
2022-11-20T01:34:10.640Z,99801.91
2022-11-20T01:36:39.615Z,99799.24
2022-11-20T01:39:13.424Z,99798.11
2022-11-20T01:42:05.728Z,99792.66
2022-11-20T01:44:54.402Z,99787.11
2022-11-20T01:47:31.560Z,99784.80
2022-11-20T01:50:34.821Z,99787.90
2022-11-20T01:53:08.288Z,99785.46
2022-11-20T01:55:42.931Z,99780.85
2022-11-20T01:58:11.492Z,99777.79
2022-11-20T02:00:39.745Z,99775.81
2022-11-20T02:03:16.462Z,99762.75
2022-11-20T02:06:12.587Z,99753.94
2022-11-20T02:08:40.640Z,99750.44
2022-11-20T02:11:08.533Z,99751.23
2022-11-20T02:13:45.825Z,99746.77
2022-11-20T02:16:35.264Z,99737.25
2022-11-20T02:19:08.465Z,99725.86
2022-11-20T02:22:26.092Z,99711.64
2022-11-20T02:24:54.268Z,99677.42
2022-11-20T02:27:23.624Z,99668.30
2022-11-20T02:29:55.301Z,99667.43
2022-11-20T02:32:29.456Z,99651.30
2022-11-20T02:34:58.217Z,99660.98
2022-11-20T02:37:35.778Z,99657.13
2022-11-20T02:40:04.372Z,99650.51
2022-11-20T02:42:32.188Z,99658.72
2022-11-20T02:45:00.270Z,99671.98
2022-11-20T02:47:28.305Z,99670.92
2022-11-20T02:49:56.126Z,99666.98
2022-11-20T02:52:24.334Z,99670.09
2022-11-20T02:54:52.619Z,99672.27
2022-11-20T02:57:20.510Z,99668.72
2022-11-20T02:59:48.555Z,99670.92
2022-11-20T03:02:17.499Z,99664.52
2022-11-20T03:04:45.416Z,99655.42
2022-11-20T03:07:13.487Z,99645.88
2022-11-20T03:09:41.481Z,99640.54
2022-11-20T03:12:10.045Z,99638.13
2022-11-20T03:14:37.926Z,99638.23
2022-11-20T03:17:05.952Z,99637.48
2022-11-20T03:19:35.173Z,99631.69
2022-11-20T03:22:02.993Z,99631.90
2022-11-20T03:24:30.963Z,99637.18
2022-11-20T03:26:59.115Z,99647.23
2022-11-20T03:29:26.871Z,99639.25
2022-11-20T03:31:54.995Z,99635.59
2022-11-20T03:34:24.269Z,99645.25
2022-11-20T03:36:52.500Z,99646.95
2022-11-20T03:39:20.660Z,99641.08
2022-11-20T03:41:48.998Z,99645.71
2022-11-20T03:44:16.857Z,99646.49
2022-11-20T03:46:44.872Z,99646.15
2022-11-20T03:49:12.745Z,99641.27
2022-11-20T03:51:41.214Z,99635.83
2022-11-20T03:54:09.698Z,99632.74
2022-11-20T03:56:40.456Z,99634.68
2022-11-20T03:59:12.088Z,99632.61
2022-11-20T04:01:42.115Z,99630.65
2022-11-20T04:04:12.535Z,99631.86
2022-11-20T04:06:40.959Z,99624.27
2022-11-20T04:09:09.086Z,99620.16
2022-11-20T04:11:40.476Z,99621.08
2022-11-20T04:14:15.003Z,99616.86
2022-11-20T04:16:43.451Z,99603.48
2022-11-20T04:19:15.175Z,99596.33
2022-11-20T04:21:44.851Z,99599.61
2022-11-20T04:24:13.196Z,99603.81
2022-11-20T04:26:41.922Z,99605.89
2022-11-20T04:29:13.222Z,99602.55
2022-11-20T04:31:41.162Z,99604.35
2022-11-20T04:34:12.594Z,99597.92
2022-11-20T04:36:41.175Z,99594.58
2022-11-20T04:39:13.788Z,99590.80
2022-11-20T04:41:42.365Z,99588.52
2022-11-20T04:44:11.126Z,99590.77
2022-11-20T04:46:43.583Z,99598.17
2022-11-20T04:49:12.902Z,99602.69
2022-11-20T04:51:40.847Z,99603.70
2022-11-20T04:54:10.575Z,99605.08
2022-11-20T04:56:38.401Z,99609.59
2022-11-20T04:59:06.281Z,99610.31
2022-11-20T05:01:34.694Z,99613.40
2022-11-20T05:04:02.671Z,99608.17
2022-11-20T05:06:30.563Z,99602.94
2022-11-20T05:08:58.983Z,99600.83
2022-11-20T05:11:30.109Z,99602.41
2022-11-20T05:14:00.219Z,99608.81
2022-11-20T05:16:28.377Z,99612.27
2022-11-20T05:18:57.083Z,99613.04
2022-11-20T05:21:25.162Z,99613.86
2022-11-20T05:23:53.032Z,99614.27
2022-11-20T05:26:23.028Z,99616.20
2022-11-20T05:28:52.415Z,99615.17
2022-11-20T05:31:27.151Z,99622.65
2022-11-20T05:33:57.919Z,99619.36
2022-11-20T05:36:26.522Z,99615.36
2022-11-20T05:38:59.694Z,99608.89
2022-11-20T05:41:29.775Z,99607.02
2022-11-20T05:43:59.321Z,99608.60
2022-11-20T05:46:29.273Z,99612.02
2022-11-20T05:48:59.028Z,99615.75
2022-11-20T05:51:27.651Z,99620.38
2022-11-20T05:53:58.734Z,99622.55
2022-11-20T05:56:26.942Z,99621.55
2022-11-20T05:58:55.170Z,99634.00
2022-11-20T06:01:25.576Z,99640.66
2022-11-20T06:03:55.112Z,99638.64
2022-11-20T06:06:23.782Z,99632.70
2022-11-20T06:08:52.080Z,99630.35
2022-11-20T06:11:19.992Z,99630.20
2022-11-20T06:13:48.724Z,99627.30
2022-11-20T06:16:22.987Z,99634.37
2022-11-20T06:18:51.306Z,99645.30
2022-11-20T06:21:21.734Z,99643.82
2022-11-20T06:23:51.614Z,99650.20
2022-11-20T06:26:25.599Z,99654.83
2022-11-20T06:28:54.797Z,99653.59
2022-11-20T06:31:25.011Z,99658.52
2022-11-20T06:33:53.988Z,99659.14
2022-11-20T06:36:23.604Z,99660.90
2022-11-20T06:38:51.572Z,99657.78
2022-11-20T06:41:22.167Z,99655.38
2022-11-20T06:43:51.126Z,99660.83
2022-11-20T06:46:21.215Z,99664.52
2022-11-20T06:48:50.144Z,99663.86
2022-11-20T06:51:18.245Z,99653.11
2022-11-20T06:53:46.552Z,99647.92
2022-11-20T06:56:14.952Z,99644.83
2022-11-20T06:58:43.023Z,99646.92
2022-11-20T07:01:13.844Z,99649.63
2022-11-20T07:03:42.243Z,99651.34
2022-11-20T07:06:10.827Z,99651.35
2022-11-20T07:08:39.657Z,99653.27
2022-11-20T07:11:08.600Z,99648.95
2022-11-20T07:13:36.607Z,99638.70
2022-11-20T07:16:07.899Z,99645.60
2022-11-20T07:18:36.718Z,99657.70
2022-11-20T07:21:06.486Z,99649.23
2022-11-20T07:23:35.918Z,99633.31
2022-11-20T07:26:08.796Z,99628.29
2022-11-20T07:28:37.469Z,99633.27
2022-11-20T07:31:07.929Z,99642.90
2022-11-20T07:33:36.112Z,99641.88
2022-11-20T07:36:04.619Z,99636.48
2022-11-20T07:38:32.826Z,99642.05
2022-11-20T07:41:02.833Z,99645.91
2022-11-20T07:43:31.353Z,99648.39
2022-11-20T07:46:00.307Z,99648.04
2022-11-20T07:48:28.356Z,99652.22
2022-11-20T07:50:57.463Z,99660.72
2022-11-20T07:53:25.841Z,99676.35
2022-11-20T07:55:54.108Z,99677.46
2022-11-20T07:58:23.007Z,99674.95
2022-11-20T08:00:51.490Z,99669.43
2022-11-20T08:03:24.718Z,99669.58
2022-11-20T08:05:53.486Z,99679.48
2022-11-20T08:08:22.529Z,99677.20
2022-11-20T08:10:50.561Z,99667.25
2022-11-20T08:13:36.669Z,99660.17
2022-11-20T08:16:05.353Z,99662.01
2022-11-20T08:18:33.399Z,99672.73
2022-11-20T08:21:05.807Z,99674.02
2022-11-20T08:23:34.120Z,99674.61
2022-11-20T08:26:01.985Z,99676.83
2022-11-20T08:28:29.963Z,99675.50
2022-11-20T08:31:02.065Z,99681.47
2022-11-20T08:33:30.944Z,99693.50
2022-11-20T08:36:03.714Z,99692.09
2022-11-20T08:38:33.260Z,99683.16
2022-11-20T08:41:21.130Z,99674.39
2022-11-20T08:43:49.500Z,99668.02
2022-11-20T08:46:18.194Z,99670.17
2022-11-20T08:48:46.876Z,99676.73
2022-11-20T08:51:14.853Z,99681.88
2022-11-20T08:53:43.227Z,99679.33
2022-11-20T08:56:12.315Z,99678.30
2022-11-20T08:59:09.870Z,99685.21
2022-11-20T09:01:30.304Z,99687.39
2022-11-20T09:03:58.822Z,99678.79
2022-11-20T09:06:27.105Z,99679.47
2022-11-20T09:08:56.007Z,99685.14
2022-11-20T09:11:24.178Z,99689.63
2022-11-20T09:13:52.371Z,99689.95
2022-11-20T09:16:20.808Z,99679.17
2022-11-20T09:19:02.235Z,99668.76
2022-11-20T09:21:39.616Z,99671.89
2022-11-20T09:24:08.173Z,99678.54
2022-11-20T09:26:36.062Z,99677.19
2022-11-20T09:29:04.090Z,99680.05
2022-11-20T09:31:32.308Z,99688.11
2022-11-20T09:34:00.367Z,99689.08
2022-11-20T09:36:28.359Z,99687.45
2022-11-20T09:38:57.424Z,99684.11
2022-11-20T09:41:53.195Z,99680.61
2022-11-20T09:44:46.214Z,99694.66
2022-11-20T09:47:48.294Z,99691.58
2022-11-20T09:50:33.689Z,99684.16
2022-11-20T09:53:14.211Z,99684.39
2022-11-20T09:55:42.956Z,99684.63
2022-11-20T09:58:42.845Z,99684.23
2022-11-20T10:01:28.180Z,99686.01
2022-11-20T10:04:05.261Z,99686.60
2022-11-20T10:07:17.208Z,99689.48
2022-11-20T10:09:50.722Z,99697.36
2022-11-20T10:12:40.003Z,99704.41
2022-11-20T10:15:22.397Z,99699.16
2022-11-20T10:18:05.758Z,99693.80
2022-11-20T10:21:10.797Z,99690.14
2022-11-20T10:23:50.368Z,99685.09
2022-11-20T10:26:41.374Z,99689.48
2022-11-20T10:29:19.721Z,99690.19
2022-11-20T10:31:53.544Z,99687.54
2022-11-20T10:34:27.149Z,99687.39
2022-11-20T10:37:08.016Z,99689.49
2022-11-20T10:39:55.481Z,99692.37
2022-11-20T10:42:46.014Z,99697.81
2022-11-20T10:45:22.790Z,99700.41
2022-11-20T10:48:10.902Z,99694.27
2022-11-20T10:50:48.171Z,99694.34
2022-11-20T10:53:40.348Z,99693.98
2022-11-20T10:56:36.708Z,99685.20
2022-11-20T10:59:31.788Z,99679.24
2022-11-20T11:02:02.667Z,99671.87
2022-11-20T11:04:41.970Z,99661.21
2022-11-20T11:07:22.365Z,99656.89
2022-11-20T11:09:56.093Z,99658.59
2022-11-20T11:12:30.098Z,99662.86
2022-11-20T11:14:58.853Z,99664.67
2022-11-20T11:17:28.512Z,99663.04
2022-11-20T11:20:11.641Z,99671.06
2022-11-20T11:22:52.629Z,99685.25
2022-11-20T11:25:28.969Z,99696.73
2022-11-20T11:28:01.282Z,99691.12
2022-11-20T11:30:33.087Z,99686.17
2022-11-20T11:33:13.089Z,99684.59
2022-11-20T11:35:51.716Z,99686.65
2022-11-20T11:38:38.195Z,99690.65
2022-11-20T11:41:09.373Z,99696.11
2022-11-20T11:43:57.301Z,99700.53
2022-11-20T11:46:37.446Z,99696.78
2022-11-20T11:49:05.943Z,99696.45
2022-11-20T11:51:52.406Z,99694.34
2022-11-20T11:54:49.044Z,99694.24
2022-11-20T11:57:17.278Z,99699.48
2022-11-20T12:00:11.276Z,99703.55
2022-11-20T12:02:45.780Z,99705.81
2022-11-20T12:05:21.743Z,99702.90
2022-11-20T12:07:55.300Z,99703.19
2022-11-20T12:10:37.542Z,99708.30
2022-11-20T12:13:16.466Z,99713.98
2022-11-20T12:15:47.582Z,99715.77
2022-11-20T12:18:24.569Z,99722.48
2022-11-20T12:21:12.057Z,99721.20
2022-11-20T12:23:40.541Z,99721.14
2022-11-20T12:26:28.358Z,99728.33
2022-11-20T12:29:22.704Z,99726.73
2022-11-20T12:32:34.682Z,99723.50
2022-11-20T12:35:24.140Z,99720.33
2022-11-20T12:38:22.206Z,99718.71
2022-11-20T12:41:36.288Z,99721.77
2022-11-20T12:45:08.043Z,99723.59
2022-11-20T12:48:00.343Z,99727.64
2022-11-20T12:50:53.274Z,99725.77
2022-11-20T12:53:39.089Z,99726.41
2022-11-20T12:56:39.288Z,99724.73
2022-11-20T12:59:07.479Z,99728.17
2022-11-20T13:01:54.012Z,99729.68
2022-11-20T13:04:34.827Z,99722.40
2022-11-20T13:07:05.575Z,99718.79
2022-11-20T13:09:38.072Z,99716.58
2022-11-20T13:12:14.883Z,99718.84
2022-11-20T13:15:12.832Z,99712.73
2022-11-20T13:17:55.621Z,99706.31
2022-11-20T13:20:23.681Z,99707.15
2022-11-20T13:22:58.349Z,99710.63
2022-11-20T13:25:29.241Z,99714.77
2022-11-20T13:28:03.756Z,99715.42
2022-11-20T13:30:32.573Z,99715.34
2022-11-20T13:33:24.364Z,99717.42
2022-11-20T13:36:03.605Z,99716.64
2022-11-20T13:38:47.873Z,99716.77
2022-11-20T13:41:32.401Z,99711.69
2022-11-20T13:44:23.311Z,99708.11
2022-11-20T13:46:51.404Z,99707.53
2022-11-20T13:49:26.062Z,99702.23
2022-11-20T13:52:22.471Z,99702.83
2022-11-20T13:55:03.347Z,99707.02
2022-11-20T13:57:31.076Z,99706.66
2022-11-20T14:00:16.001Z,99708.36
2022-11-20T14:02:49.613Z,99704.86
2022-11-20T14:05:24.415Z,99705.39
2022-11-20T14:07:55.146Z,99703.02
2022-11-20T14:10:32.101Z,99706.87
2022-11-20T14:13:16.846Z,99706.77
2022-11-20T14:15:45.437Z,99708.35
2022-11-20T14:18:17.078Z,99711.41
2022-11-20T14:20:45.370Z,99716.30
2022-11-20T14:23:13.700Z,99721.29
2022-11-20T14:25:46.322Z,99722.80
2022-11-20T14:28:25.702Z,99724.04
2022-11-20T14:30:55.059Z,99727.19
2022-11-20T14:33:26.224Z,99728.86
2022-11-20T14:35:57.759Z,99741.46
2022-11-20T14:38:29.281Z,99745.80
2022-11-20T14:41:21.769Z,99734.49
2022-11-20T14:43:58.268Z,99730.23
2022-11-20T14:46:27.074Z,99736.03
2022-11-20T14:48:58.076Z,99740.64
2022-11-20T14:51:42.159Z,99749.20
2022-11-20T14:54:19.145Z,99750.25
2022-11-20T14:56:57.172Z,99749.37
2022-11-20T14:59:27.349Z,99751.72
2022-11-20T15:02:02.409Z,99755.24
2022-11-20T15:04:30.621Z,99756.48
2022-11-20T15:07:00.593Z,99751.23
2022-11-20T15:09:28.484Z,99749.57
2022-11-20T15:11:59.404Z,99757.79
2022-11-20T15:14:29.279Z,99755.20
2022-11-20T15:16:57.620Z,99750.80
2022-11-20T15:19:27.650Z,99750.08
2022-11-20T15:21:55.621Z,99753.11
2022-11-20T15:24:23.743Z,99756.70
2022-11-20T15:26:51.828Z,99756.66
2022-11-20T15:29:21.995Z,99750.40
2022-11-20T15:31:52.043Z,99748.14
2022-11-20T15:34:20.654Z,99746.81
2022-11-20T15:36:49.116Z,99744.59
2022-11-20T15:39:17.251Z,99743.23
2022-11-20T15:41:45.559Z,99745.36
2022-11-20T15:44:13.669Z,99748.05
2022-11-20T15:46:44.339Z,99747.50
2022-11-20T15:49:14.080Z,99748.70
2022-11-20T15:51:48.927Z,99746.73
2022-11-20T15:54:22.772Z,99747.13
2022-11-20T15:56:55.444Z,99748.27
2022-11-20T15:59:23.516Z,99745.10
2022-11-20T16:01:51.704Z,99749.73
2022-11-20T16:04:20.024Z,99755.71
2022-11-20T16:06:48.191Z,99757.70
2022-11-20T16:09:16.415Z,99751.32
2022-11-20T16:11:44.300Z,99750.75
2022-11-20T16:14:31.226Z,99747.21
2022-11-20T16:16:59.384Z,99750.88
2022-11-20T16:19:27.216Z,99742.77
2022-11-20T16:22:01.206Z,99740.97
2022-11-20T16:24:31.190Z,99742.23
2022-11-20T16:26:59.350Z,99740.14
2022-11-20T16:29:27.233Z,99731.09
2022-11-20T16:31:55.424Z,99729.56
2022-11-20T16:34:24.264Z,99725.35
2022-11-20T16:36:52.224Z,99724.02
2022-11-20T16:39:23.552Z,99723.39
2022-11-20T16:41:52.616Z,99721.30
2022-11-20T16:44:20.576Z,99720.98
2022-11-20T16:46:48.412Z,99723.64
2022-11-20T16:49:16.432Z,99721.60
2022-11-20T16:51:44.350Z,99718.22
2022-11-20T16:54:16.353Z,99717.63
2022-11-20T16:56:48.211Z,99722.23
2022-11-20T16:59:17.341Z,99727.05
2022-11-20T17:01:45.300Z,99731.42
2022-11-20T17:04:13.290Z,99728.68
2022-11-20T17:06:44.455Z,99720.45
2022-11-20T17:09:13.485Z,99722.90
2022-11-20T17:11:42.410Z,99731.33
2022-11-20T17:14:13.236Z,99740.19
2022-11-20T17:16:41.267Z,99747.87
2022-11-20T17:19:09.625Z,99756.55
2022-11-20T17:21:39.325Z,99768.88
2022-11-20T17:24:12.482Z,99768.93
2022-11-20T17:26:42.213Z,99766.70
2022-11-20T17:29:16.085Z,99766.94
2022-11-20T17:31:46.454Z,99763.01
2022-11-20T17:34:15.668Z,99762.19
2022-11-20T17:36:47.408Z,99768.41
2022-11-20T17:39:17.287Z,99769.60
2022-11-20T17:41:46.061Z,99766.34
2022-11-20T17:44:14.090Z,99762.33
2022-11-20T17:46:42.171Z,99764.56
2022-11-20T17:49:10.288Z,99759.44
2022-11-20T17:51:38.066Z,99753.66
2022-11-20T17:54:09.131Z,99745.59
2022-11-20T17:56:55.503Z,99737.97
2022-11-20T17:59:23.607Z,99741.29
2022-11-20T18:01:51.444Z,99748.82
2022-11-20T18:04:19.338Z,99759.03
2022-11-20T18:06:47.180Z,99764.89
2022-11-20T18:09:15.260Z,99773.48
2022-11-20T18:11:44.036Z,99777.05
2022-11-20T18:14:32.404Z,99769.05
2022-11-20T18:17:05.595Z,99764.14
2022-11-20T18:19:41.257Z,99763.84
2022-11-20T18:22:17.821Z,99769.89
2022-11-20T18:24:46.522Z,99768.20
2022-11-20T18:27:20.148Z,99760.92
2022-11-20T18:29:51.709Z,99753.60
2022-11-20T18:32:21.768Z,99745.44
2022-11-20T18:34:50.785Z,99744.41
2022-11-20T18:37:19.305Z,99751.22
2022-11-20T18:39:47.321Z,99751.83
2022-11-20T18:42:35.590Z,99751.48
2022-11-20T18:45:05.079Z,99752.46
2022-11-20T18:47:40.460Z,99755.83
2022-11-20T18:50:09.341Z,99754.42
2022-11-20T18:52:42.333Z,99759.66
2022-11-20T18:55:11.190Z,99758.95
2022-11-20T18:57:39.275Z,99759.27
2022-11-20T19:00:09.747Z,99758.03
2022-11-20T19:02:42.270Z,99758.80
2022-11-20T19:05:14.206Z,99764.27
2022-11-20T19:07:42.514Z,99765.71
2022-11-20T19:10:10.938Z,99762.21
2022-11-20T19:12:39.318Z,99759.07
2022-11-20T19:15:08.618Z,99758.02
2022-11-20T19:17:36.601Z,99758.11
2022-11-20T19:20:05.070Z,99754.14
2022-11-20T19:22:33.156Z,99755.86
2022-11-20T19:25:01.063Z,99761.08
2022-11-20T19:27:29.490Z,99761.82
2022-11-20T19:30:03.690Z,99758.89
2022-11-20T19:32:32.624Z,99757.96
2022-11-20T19:35:00.894Z,99756.88
2022-11-20T19:37:29.046Z,99754.73
2022-11-20T19:39:59.631Z,99743.96
2022-11-20T19:42:27.880Z,99734.23
2022-11-20T19:44:58.275Z,99728.10
2022-11-20T19:47:40.822Z,99732.45
2022-11-20T19:50:16.380Z,99741.49
2022-11-20T19:52:44.575Z,99743.87
2022-11-20T19:55:12.588Z,99749.05
2022-11-20T19:57:40.613Z,99758.29
2022-11-20T20:00:10.032Z,99766.52
2022-11-20T20:02:37.948Z,99768.71
2022-11-20T20:05:06.387Z,99775.89
2022-11-20T20:07:34.704Z,99788.34
2022-11-20T20:10:02.919Z,99792.27
2022-11-20T20:12:30.906Z,99786.90
2022-11-20T20:14:59.008Z,99779.95
2022-11-20T20:17:26.838Z,99774.34
2022-11-20T20:19:55.227Z,99765.59
2022-11-20T20:22:23.125Z,99756.61
2022-11-20T20:24:52.224Z,99750.44
2022-11-20T20:27:20.113Z,99743.01
2022-11-20T20:29:48.702Z,99733.03
2022-11-20T20:32:16.921Z,99733.12
2022-11-20T20:34:45.171Z,99730.59
2022-11-20T20:37:13.060Z,99724.78
2022-11-20T20:39:40.959Z,99717.71
2022-11-20T20:42:08.724Z,99713.54
2022-11-20T20:44:55.293Z,99718.03
2022-11-20T20:47:23.223Z,99727.13
2022-11-20T20:49:51.102Z,99733.98
2022-11-20T20:52:19.074Z,99734.58
2022-11-20T20:54:46.956Z,99737.88
2022-11-20T20:57:15.076Z,99743.29
2022-11-20T20:59:42.996Z,99738.77
2022-11-20T21:02:11.192Z,99737.87
2022-11-20T21:04:39.472Z,99738.02
2022-11-20T21:07:07.871Z,99738.70
2022-11-20T21:09:35.886Z,99737.84
2022-11-20T21:12:04.859Z,99736.81
2022-11-20T21:14:33.066Z,99735.48
2022-11-20T21:17:01.564Z,99733.94
2022-11-20T21:19:29.547Z,99737.84
2022-11-20T21:22:00.422Z,99742.66
2022-11-20T21:24:29.797Z,99751.18
2022-11-20T21:26:58.597Z,99751.70
2022-11-20T21:29:28.505Z,99744.81
2022-11-20T21:31:58.166Z,99741.20
2022-11-20T21:34:26.783Z,99728.41
2022-11-20T21:36:54.895Z,99716.48
2022-11-20T21:39:23.214Z,99709.73
2022-11-20T21:41:51.110Z,99709.98
2022-11-20T21:44:34.338Z,99707.97
2022-11-20T21:47:02.692Z,99712.91
2022-11-20T21:49:30.968Z,99709.38
2022-11-20T21:51:59.324Z,99702.88
2022-11-20T21:54:27.609Z,99691.88
2022-11-20T21:56:55.467Z,99685.95
2022-11-20T21:59:23.813Z,99686.37
2022-11-20T22:01:51.819Z,99685.50
2022-11-20T22:04:21.391Z,99685.09
2022-11-20T22:06:49.406Z,99679.11
2022-11-20T22:09:17.358Z,99679.33
2022-11-20T22:11:45.359Z,99679.71
2022-11-20T22:14:22.723Z,99683.02
2022-11-20T22:16:53.583Z,99678.58
2022-11-20T22:19:22.976Z,99674.73
2022-11-20T22:21:52.069Z,99672.06
2022-11-20T22:24:22.455Z,99666.66
2022-11-20T22:26:51.396Z,99662.64
2022-11-20T22:29:21.361Z,99657.90
2022-11-20T22:31:53.356Z,99657.33
2022-11-20T22:34:22.167Z,99656.21
2022-11-20T22:36:50.778Z,99657.52
2022-11-20T22:39:18.791Z,99649.27
2022-11-20T22:41:46.982Z,99642.70
2022-11-20T22:44:16.346Z,99638.90
2022-11-20T22:46:44.244Z,99636.45
2022-11-20T22:49:12.532Z,99630.45
2022-11-20T22:51:41.798Z,99631.41
2022-11-20T22:54:13.139Z,99639.02
2022-11-20T22:56:41.768Z,99634.36
2022-11-20T22:59:09.871Z,99633.37
2022-11-20T23:01:38.609Z,99629.44
2022-11-20T23:04:09.870Z,99627.29
2022-11-20T23:06:38.487Z,99629.57
2022-11-20T23:09:07.649Z,99628.39
2022-11-20T23:11:36.709Z,99618.30
2022-11-20T23:14:08.458Z,99610.51
2022-11-20T23:16:36.746Z,99609.05
2022-11-20T23:19:08.016Z,99600.55
2022-11-20T23:21:37.500Z,99597.71
2022-11-20T23:24:06.518Z,99598.24
2022-11-20T23:26:37.094Z,99594.91
2022-11-20T23:29:05.908Z,99594.84
2022-11-20T23:31:35.711Z,99588.06
2022-11-20T23:34:04.907Z,99585.66
2022-11-20T23:36:33.104Z,99586.48
2022-11-20T23:39:00.888Z,99590.04
2022-11-20T23:41:28.817Z,99588.14
2022-11-20T23:43:56.657Z,99587.34
2022-11-20T23:46:24.605Z,99582.70
2022-11-20T23:48:52.502Z,99580.06
2022-11-20T23:51:20.803Z,99583.84
2022-11-20T23:53:49.019Z,99583.58
2022-11-20T23:56:17.133Z,99588.60
2022-11-20T23:58:45.419Z,99586.02
